DLH516 EDDS-EDLW
Flight info
| Callsign | DLH516 |
|---|---|
| Flight time | 0h 46m |
| Altitude | 24000 |
| Route | TAGIK2H/07 TAGIK Z3 ABUMO N850 TOXIF T842 ADEMI ADEMI2A |
| Aircraft | A20N/M-SDE2E3FGHIRWXY/LB1 |
Departure
| Time | 2026-05-04 15:41 |
|---|---|
| Airport | Stuttgart Airport (EDDS) |
Arrival
| Time | 2026-05-04 16:27 |
|---|---|
| Airport | Dortmund Airport (EDLW) |
| Time | Latitude | Longitude | Altitude | Speed | Heading |
|---|---|---|---|---|---|
| 2026-05-04 15:08 | 48.68943 | 9.19719 | 1285 ft | 0 kts | 343° |
| 2026-05-04 15:34 | 48.68930 | 9.19725 | 1290 ft | 1 kts | 343° |
| 2026-05-04 15:34 | 48.68925 | 9.19728 | 1290 ft | 1 kts | 343° |
| 2026-05-04 15:34 | 48.68914 | 9.19733 | 1291 ft | 1 kts | 343° |
| 2026-05-04 15:35 | 48.68898 | 9.19740 | 1289 ft | 1 kts | 352° |
| 2026-05-04 15:35 | 48.68891 | 9.19741 | 1289 ft | 1 kts | 6° |
| 2026-05-04 15:35 | 48.68883 | 9.19739 | 1290 ft | 1 kts | 22° |
| 2026-05-04 15:36 | 48.68871 | 9.19729 | 1286 ft | 1 kts | 58° |
| 2026-05-04 15:36 | 48.68869 | 9.19723 | 1286 ft | 0 kts | 72° |
| 2026-05-04 15:38 | 48.68872 | 9.19742 | 1288 ft | 9 kts | 72° |
| 2026-05-04 15:38 | 48.68875 | 9.19861 | 1287 ft | 12 kts | 131° |
| 2026-05-04 15:38 | 48.68797 | 9.19932 | 1287 ft | 15 kts | 157° |
| 2026-05-04 15:38 | 48.68681 | 9.19987 | 1286 ft | 10 kts | 165° |
| 2026-05-04 15:39 | 48.68677 | 9.19988 | 1286 ft | 0 kts | 165° |
| 2026-05-04 15:39 | 48.68649 | 9.20003 | 1286 ft | 18 kts | 156° |
| 2026-05-04 15:40 | 48.68637 | 9.20349 | 1288 ft | 59 kts | 72° |
| 2026-05-04 15:40 | 48.68806 | 9.21248 | 1289 ft | 116 kts | 73° |
| 2026-05-04 15:40 | 48.69071 | 9.22646 | 1318 ft | 155 kts | 73° |
| 2026-05-04 15:40 | 48.69401 | 9.24244 | 1709 ft | 163 kts | 74° |
| 2026-05-04 15:41 | 48.69672 | 9.25902 | 2407 ft | 161 kts | 77° |
| 2026-05-04 15:41 | 48.69921 | 9.27560 | 3123 ft | 162 kts | 76° |
| 2026-05-04 15:41 | 48.70231 | 9.29298 | 3666 ft | 181 kts | 73° |
| 2026-05-04 15:41 | 48.70606 | 9.31228 | 4238 ft | 200 kts | 73° |
| 2026-05-04 15:42 | 48.71030 | 9.33344 | 4779 ft | 221 kts | 73° |
| 2026-05-04 15:42 | 48.71515 | 9.35743 | 5036 ft | 253 kts | 73° |
| 2026-05-04 15:42 | 48.72045 | 9.38386 | 5554 ft | 277 kts | 73° |
| 2026-05-04 15:42 | 48.72733 | 9.41400 | 5288 ft | 329 kts | 63° |
| 2026-05-04 15:43 | 48.74219 | 9.44310 | 5043 ft | 371 kts | 41° |
| 2026-05-04 15:43 | 48.76484 | 9.46476 | 5041 ft | 399 kts | 23° |
| 2026-05-04 15:43 | 48.79020 | 9.48041 | 6138 ft | 384 kts | 21° |
| 2026-05-04 15:43 | 48.81412 | 9.49282 | 6548 ft | 354 kts | 11° |
| 2026-05-04 15:44 | 48.83810 | 9.49430 | 6232 ft | 341 kts | 351° |
| 2026-05-04 15:44 | 48.85961 | 9.48219 | 6140 ft | 325 kts | 326° |
| 2026-05-04 15:44 | 48.87564 | 9.45933 | 6550 ft | 308 kts | 310° |
| 2026-05-04 15:44 | 48.88951 | 9.43534 | 7401 ft | 295 kts | 311° |
| 2026-05-04 15:45 | 48.90304 | 9.41304 | 8789 ft | 282 kts | 313° |
| 2026-05-04 15:45 | 48.91659 | 9.39130 | 9865 ft | 285 kts | 313° |
| 2026-05-04 15:45 | 48.92570 | 9.37686 | 10419 ft | 292 kts | 313° |
| 2026-05-04 15:45 | 48.94046 | 9.35360 | 10866 ft | 316 kts | 314° |
| 2026-05-04 15:46 | 48.96166 | 9.32028 | 11501 ft | 340 kts | 314° |
| 2026-05-04 15:46 | 48.97814 | 9.29435 | 12358 ft | 344 kts | 314° |
| 2026-05-04 15:46 | 48.99484 | 9.26804 | 13214 ft | 348 kts | 314° |
| 2026-05-04 15:46 | 49.00612 | 9.25024 | 13755 ft | 351 kts | 314° |
| 2026-05-04 15:47 | 49.02317 | 9.22330 | 14559 ft | 356 kts | 314° |
| 2026-05-04 15:47 | 49.04043 | 9.19600 | 15343 ft | 360 kts | 314° |
| 2026-05-04 15:47 | 49.05811 | 9.16800 | 16130 ft | 364 kts | 313° |
| 2026-05-04 15:47 | 49.07555 | 9.14036 | 16861 ft | 368 kts | 313° |
| 2026-05-04 15:48 | 49.09347 | 9.11191 | 17569 ft | 372 kts | 313° |
| 2026-05-04 15:48 | 49.11142 | 9.08337 | 18263 ft | 376 kts | 313° |
| 2026-05-04 15:48 | 49.14803 | 9.02509 | 19621 ft | 384 kts | 313° |
| 2026-05-04 15:49 | 49.16665 | 8.99555 | 20254 ft | 388 kts | 315° |
| 2026-05-04 15:49 | 49.18836 | 8.97098 | 20874 ft | 392 kts | 332° |
| 2026-05-04 15:49 | 49.21410 | 8.95684 | 21472 ft | 396 kts | 349° |
| 2026-05-04 15:49 | 49.24171 | 8.95434 | 22058 ft | 400 kts | 3° |
| 2026-05-04 15:50 | 49.26962 | 8.95810 | 22633 ft | 404 kts | 6° |
| 2026-05-04 15:50 | 49.29770 | 8.96276 | 23217 ft | 407 kts | 6° |
| 2026-05-04 15:50 | 49.32599 | 8.96739 | 23743 ft | 411 kts | 6° |
| 2026-05-04 15:50 | 49.35459 | 8.97181 | 23950 ft | 414 kts | 5° |
| 2026-05-04 15:51 | 49.38334 | 8.97603 | 23999 ft | 414 kts | 5° |
| 2026-05-04 15:51 | 49.41196 | 8.98010 | 24000 ft | 414 kts | 5° |
| 2026-05-04 15:51 | 49.44043 | 8.98410 | 24000 ft | 415 kts | 5° |
| 2026-05-04 15:51 | 49.46930 | 8.98815 | 24000 ft | 413 kts | 5° |
| 2026-05-04 15:52 | 49.49793 | 8.99216 | 24000 ft | 414 kts | 5° |
| 2026-05-04 15:52 | 49.52665 | 8.99618 | 24000 ft | 415 kts | 5° |
| 2026-05-04 15:52 | 49.55545 | 9.00016 | 24000 ft | 415 kts | 5° |
| 2026-05-04 15:52 | 49.58423 | 9.00412 | 24000 ft | 415 kts | 5° |
| 2026-05-04 15:53 | 49.61221 | 9.00797 | 24000 ft | 414 kts | 5° |
| 2026-05-04 15:53 | 49.64077 | 9.01194 | 24000 ft | 414 kts | 5° |
| 2026-05-04 15:53 | 49.66917 | 9.01601 | 24000 ft | 414 kts | 5° |
| 2026-05-04 15:53 | 49.69823 | 9.02021 | 24000 ft | 414 kts | 5° |
| 2026-05-04 15:54 | 49.72656 | 9.02430 | 24000 ft | 414 kts | 5° |
| 2026-05-04 15:54 | 49.75522 | 9.02845 | 24000 ft | 413 kts | 5° |
| 2026-05-04 15:54 | 49.78380 | 9.03257 | 24000 ft | 414 kts | 5° |
| 2026-05-04 15:54 | 49.81256 | 9.03672 | 24000 ft | 414 kts | 5° |
| 2026-05-04 15:55 | 49.84119 | 9.04086 | 24000 ft | 413 kts | 5° |
| 2026-05-04 15:55 | 49.86987 | 9.04501 | 24000 ft | 413 kts | 5° |
| 2026-05-04 15:55 | 49.89854 | 9.04814 | 24000 ft | 413 kts | 360° |
| 2026-05-04 15:55 | 49.92715 | 9.04467 | 24001 ft | 412 kts | 350° |
| 2026-05-04 15:56 | 49.95501 | 9.03401 | 24000 ft | 412 kts | 341° |
| 2026-05-04 15:56 | 49.98179 | 9.01823 | 24000 ft | 412 kts | 339° |
| 2026-05-04 15:56 | 50.00860 | 9.00232 | 24000 ft | 412 kts | 339° |
| 2026-05-04 15:56 | 50.03537 | 8.98652 | 24000 ft | 412 kts | 339° |
| 2026-05-04 15:57 | 50.06219 | 8.97066 | 24000 ft | 412 kts | 339° |
| 2026-05-04 15:57 | 50.08892 | 8.95481 | 24000 ft | 412 kts | 339° |
| 2026-05-04 15:57 | 50.11578 | 8.93883 | 24000 ft | 412 kts | 339° |
| 2026-05-04 15:57 | 50.14301 | 8.92525 | 24000 ft | 412 kts | 346° |
| 2026-05-04 15:58 | 50.17119 | 8.91716 | 24001 ft | 412 kts | 352° |
| 2026-05-04 15:58 | 50.19964 | 8.91140 | 24000 ft | 412 kts | 352° |
| 2026-05-04 15:58 | 50.22813 | 8.90537 | 24000 ft | 413 kts | 352° |
| 2026-05-04 15:58 | 50.25655 | 8.89929 | 24000 ft | 412 kts | 352° |
| 2026-05-04 15:59 | 50.28502 | 8.89322 | 24000 ft | 413 kts | 352° |
| 2026-05-04 15:59 | 50.31350 | 8.88723 | 24000 ft | 413 kts | 352° |
| 2026-05-04 15:59 | 50.34199 | 8.88127 | 24000 ft | 412 kts | 352° |
| 2026-05-04 15:59 | 50.37009 | 8.87539 | 24000 ft | 412 kts | 352° |
| 2026-05-04 16:00 | 50.39886 | 8.86937 | 24000 ft | 412 kts | 352° |
| 2026-05-04 16:00 | 50.42729 | 8.86341 | 24000 ft | 412 kts | 352° |
| 2026-05-04 16:00 | 50.45541 | 8.85750 | 24000 ft | 412 kts | 352° |
| 2026-05-04 16:00 | 50.48381 | 8.85153 | 24000 ft | 413 kts | 352° |
| 2026-05-04 16:01 | 50.51232 | 8.84552 | 24000 ft | 413 kts | 352° |
| 2026-05-04 16:01 | 50.54071 | 8.83954 | 24000 ft | 413 kts | 352° |
| 2026-05-04 16:01 | 50.56927 | 8.83351 | 24000 ft | 413 kts | 352° |
| 2026-05-04 16:01 | 50.59778 | 8.82741 | 23999 ft | 413 kts | 351° |
| 2026-05-04 16:02 | 50.62545 | 8.81605 | 24000 ft | 413 kts | 339° |
| 2026-05-04 16:02 | 50.65115 | 8.79596 | 24000 ft | 413 kts | 327° |
| 2026-05-04 16:02 | 50.69572 | 8.73910 | 24000 ft | 412 kts | 319° |
| 2026-05-04 16:03 | 50.71758 | 8.70989 | 24000 ft | 412 kts | 319° |
| 2026-05-04 16:03 | 50.73939 | 8.68074 | 24000 ft | 412 kts | 319° |
| 2026-05-04 16:03 | 50.76128 | 8.65143 | 24000 ft | 412 kts | 319° |
| 2026-05-04 16:03 | 50.78313 | 8.62213 | 24000 ft | 412 kts | 319° |
| 2026-05-04 16:04 | 50.80498 | 8.59277 | 24000 ft | 412 kts | 319° |
| 2026-05-04 16:04 | 50.84852 | 8.53414 | 23836 ft | 409 kts | 319° |
| 2026-05-04 16:04 | 50.87023 | 8.50485 | 23397 ft | 407 kts | 319° |
| 2026-05-04 16:05 | 50.89173 | 8.47580 | 22817 ft | 405 kts | 319° |
| 2026-05-04 16:05 | 50.91303 | 8.44699 | 22265 ft | 401 kts | 319° |
| 2026-05-04 16:05 | 50.95508 | 8.39002 | 21069 ft | 395 kts | 319° |
| 2026-05-04 16:06 | 50.97589 | 8.36175 | 20479 ft | 392 kts | 319° |
| 2026-05-04 16:06 | 51.03234 | 8.29220 | 18949 ft | 383 kts | 330° |
| 2026-05-04 16:07 | 51.06304 | 8.26525 | 18208 ft | 378 kts | 330° |
| 2026-05-04 16:07 | 51.13108 | 8.20450 | 16529 ft | 369 kts | 330° |
| 2026-05-04 16:08 | 51.15332 | 8.18465 | 15973 ft | 366 kts | 330° |
| 2026-05-04 16:08 | 51.21904 | 8.12595 | 14348 ft | 357 kts | 330° |
| 2026-05-04 16:09 | 51.26199 | 8.08748 | 13286 ft | 351 kts | 330° |
| 2026-05-04 16:09 | 51.30425 | 8.04953 | 12238 ft | 345 kts | 330° |
| 2026-05-04 16:10 | 51.34552 | 8.01240 | 11086 ft | 338 kts | 330° |
| 2026-05-04 16:11 | 51.40358 | 7.96011 | 10163 ft | 291 kts | 332° |
| 2026-05-04 16:11 | 51.42220 | 7.95089 | 9871 ft | 278 kts | 356° |
| 2026-05-04 16:12 | 51.47928 | 7.95576 | 8270 ft | 271 kts | 3° |
| 2026-05-04 16:12 | 51.53480 | 7.96165 | 6706 ft | 265 kts | 3° |
| 2026-05-04 16:13 | 51.57092 | 7.96550 | 5869 ft | 250 kts | 3° |
| 2026-05-04 16:13 | 51.60468 | 7.96913 | 5111 ft | 238 kts | 3° |
| 2026-05-04 16:14 | 51.63786 | 7.96739 | 5003 ft | 241 kts | 335° |
| 2026-05-04 16:14 | 51.65679 | 7.92685 | 4993 ft | 224 kts | 273° |
| 2026-05-04 16:15 | 51.63521 | 7.87378 | 4391 ft | 192 kts | 206° |
| 2026-05-04 16:16 | 51.60998 | 7.85727 | 3636 ft | 203 kts | 196° |
| 2026-05-04 16:16 | 51.58072 | 7.79941 | 3673 ft | 273 kts | 241° |
| 2026-05-04 16:17 | 51.56034 | 7.75258 | 3528 ft | 247 kts | 224° |
| 2026-05-04 16:18 | 51.55186 | 7.67747 | 3034 ft | 221 kts | 293° |
| 2026-05-04 16:18 | 51.56034 | 7.65812 | 3029 ft | 207 kts | 322° |
| 2026-05-04 16:19 | 51.59745 | 7.67230 | 3039 ft | 212 kts | 61° |
| 2026-05-04 16:19 | 51.61072 | 7.71430 | 3035 ft | 212 kts | 63° |
| 2026-05-04 16:20 | 51.63047 | 7.77798 | 3036 ft | 212 kts | 63° |
| 2026-05-04 16:20 | 51.64362 | 7.82041 | 3037 ft | 212 kts | 63° |
| 2026-05-04 16:21 | 51.64333 | 7.88472 | 3034 ft | 211 kts | 141° |
| 2026-05-04 16:22 | 51.61586 | 7.88887 | 3038 ft | 209 kts | 210° |
| 2026-05-04 16:22 | 51.58836 | 7.83745 | 3036 ft | 208 kts | 243° |
| 2026-05-04 16:23 | 51.57048 | 7.77468 | 2473 ft | 195 kts | 248° |
| 2026-05-04 16:24 | 51.55212 | 7.70642 | 1481 ft | 147 kts | 241° |
| 2026-05-04 16:25 | 51.54247 | 7.68023 | 1258 ft | 141 kts | 240° |
| 2026-05-04 16:26 | 51.52391 | 7.62800 | 500 ft | 133 kts | 241° |
| 2026-05-04 16:26 | 51.51623 | 7.60616 | 407 ft | 54 kts | 240° |
| 2026-05-04 16:27 | 51.51381 | 7.60295 | 409 ft | 21 kts | 143° |
| 2026-05-04 16:28 | 51.51434 | 7.60597 | 417 ft | 0 kts | 61° |
| 2026-05-04 16:31 | 51.51552 | 7.61050 | 428 ft | 14 kts | 156° |
| 2026-05-04 16:32 | 51.51440 | 7.61056 | 428 ft | 0 kts | 143° |
| 2026-05-04 16:33 | 51.51436 | 7.61060 | 426 ft | 0 kts | 144° |